Time;durP1;ratioP1;P1;durP2;ratioP2;P2;SDS_P1;SDS_P2;PMS_P1;PMS_P2;Temp;Humidity;BMP_temperature;BMP_pressure;BME280_temperature;BME280_humidity;BME280_pressure;Samples;Min_cycle;Max_cycle;Signal;HPM_P1;HPM_P2
2021/08/05 00:01:02;;;;;;;6.37;5.27;;;16.80;99.90;;;;;;5075736;28;20530;-80
2021/08/05 00:03:28;;;;;;;5.13;4.73;;;16.70;99.90;;;;;;5074992;28;20558;-81
2021/08/05 00:05:55;;;;;;;5.20;4.80;;;16.70;99.90;;;;;;5075669;28;20549;-81
2021/08/05 00:08:21;;;;;;;4.70;4.30;;;16.70;99.90;;;;;;5075984;28;20537;-81
2021/08/05 00:10:48;;;;;;;4.27;3.93;;;16.70;99.90;;;;;;5075530;28;20497;-81
2021/08/05 00:13:16;;;;;;;4.60;4.27;;;16.70;99.90;;;;;;5075047;28;20510;-80
2021/08/05 00:15:43;;;;;;;4.60;4.17;;;16.70;99.90;;;;;;5074827;28;20439;-79
2021/08/05 00:18:09;;;;;;;6.10;5.23;;;16.60;99.90;;;;;;5075254;28;20546;-78
2021/08/05 00:20:36;;;;;;;5.17;4.77;;;16.60;99.90;;;;;;5075047;28;20482;-78
2021/08/05 00:23:02;;;;;;;4.50;4.20;;;16.60;99.90;;;;;;5075249;28;20449;-78
2021/08/05 00:25:29;;;;;;;5.10;4.70;;;16.60;99.90;;;;;;5075211;28;20998;-79
2021/08/05 00:27:55;;;;;;;8.40;4.70;;;16.60;99.90;;;;;;5075183;28;20559;-79
2021/08/05 00:30:24;;;;;;;4.90;4.50;;;16.60;99.90;;;;;;5075095;28;20534;-79
2021/08/05 00:32:51;;;;;;;4.53;4.23;;;16.60;99.90;;;;;;5069455;28;20467;-78
2021/08/05 00:35:17;;;;;;;5.40;4.90;;;16.60;99.90;;;;;;5074979;28;20535;-79
2021/08/05 00:37:44;;;;;;;5.57;4.33;;;16.60;99.90;;;;;;5075137;28;20557;-79
2021/08/05 00:40:11;;;;;;;4.90;4.47;;;16.60;99.90;;;;;;5074683;28;20531;-79
2021/08/05 00:42:37;;;;;;;4.10;3.80;;;16.60;99.90;;;;;;5074505;28;20466;-80
2021/08/05 00:45:05;;;;;;;3.90;3.70;;;16.60;99.90;;;;;;5073590;28;20505;-81
2021/08/05 00:47:33;;;;;;;4.73;3.30;;;16.60;99.90;;;;;;5058100;28;20493;-80
2021/08/05 00:49:59;;;;;;;3.97;3.67;;;16.60;99.90;;;;;;5074658;28;20444;-80
2021/08/05 00:52:26;;;;;;;3.87;3.50;;;16.60;99.90;;;;;;5074065;28;20495;-81
2021/08/05 00:54:53;;;;;;;3.80;3.50;;;16.60;99.90;;;;;;5074741;28;20528;-80
2021/08/05 00:57:20;;;;;;;3.40;3.20;;;16.60;99.90;;;;;;5074624;28;20508;-80
2021/08/05 00:59:47;;;;;;;3.93;3.67;;;16.60;99.90;;;;;;5074771;28;20848;-80
2021/08/05 01:02:19;;;;;;;3.33;3.13;;;16.50;99.90;;;;;;5074925;28;20498;-80
2021/08/05 01:04:52;;;;;;;4.60;4.10;;;16.50;99.90;;;;;;5074863;28;20530;-80
2021/08/05 01:07:26;;;;;;;3.77;3.40;;;16.50;99.90;;;;;;5074747;28;20447;-79
2021/08/05 01:10:01;;;;;;;5.20;3.90;;;16.60;99.90;;;;;;5074602;28;20447;-80
2021/08/05 01:12:35;;;;;;;4.27;3.87;;;16.50;99.90;;;;;;5074656;28;20462;-80
2021/08/05 01:15:04;;;;;;;5.07;3.80;;;16.50;99.90;;;;;;5074898;28;20474;-79
2021/08/05 01:17:34;;;;;;;5.10;3.03;;;16.50;99.90;;;;;;5074553;28;20472;-79
2021/08/05 01:20:04;;;;;;;3.70;3.40;;;16.50;99.90;;;;;;5074678;28;20505;-81
2021/08/05 01:22:36;;;;;;;3.83;3.53;;;16.50;99.90;;;;;;5074228;28;20520;-82
2021/08/05 01:25:08;;;;;;;4.37;3.97;;;16.50;99.90;;;;;;5074711;28;20805;-81
2021/08/05 01:27:37;;;;;;;3.73;3.43;;;16.40;99.90;;;;;;5074483;28;20476;-81
2021/08/05 01:30:05;;;;;;;7.63;3.27;;;16.30;99.90;;;;;;5074100;28;20505;-80
2021/08/05 01:32:32;;;;;;;3.20;3.00;;;16.40;99.90;;;;;;5074068;28;20573;-79
2021/08/05 01:34:59;;;;;;;3.80;3.40;;;16.40;99.90;;;;;;5074062;28;20617;-79
2021/08/05 01:37:26;;;;;;;3.63;3.20;;;16.30;99.90;;;;;;5074123;28;20471;-79
2021/08/05 01:39:54;;;;;;;3.90;3.57;;;16.30;99.90;;;;;;5074227;28;20451;-79
2021/08/05 01:42:22;;;;;;;3.40;3.20;;;16.30;99.90;;;;;;5074431;28;20497;-78
2021/08/05 01:44:52;;;;;;;4.30;3.70;;;16.30;99.90;;;;;;5073928;28;20478;-79
2021/08/05 01:47:19;;;;;;;3.27;3.07;;;16.30;99.90;;;;;;5074062;28;20454;-79
2021/08/05 01:49:47;;;;;;;3.87;3.67;;;16.30;99.90;;;;;;5074071;28;20448;-79
2021/08/05 01:52:13;;;;;;;3.70;3.10;;;16.30;99.90;;;;;;5073906;28;20464;-79
2021/08/05 01:54:40;;;;;;;5.10;3.57;;;16.30;99.90;;;;;;5073375;28;20539;-79
2021/08/05 01:57:09;;;;;;;3.50;3.30;;;16.30;99.90;;;;;;5073592;28;20531;-79
2021/08/05 01:59:36;;;;;;;2.93;2.73;;;16.30;99.90;;;;;;5073524;28;20527;-79
2021/08/05 02:02:04;;;;;;;4.90;3.47;;;16.30;99.90;;;;;;5073494;28;20471;-79
2021/08/05 02:04:43;;;;;;;3.57;3.27;;;16.30;99.90;;;;;;5072264;28;20542;-79
2021/08/05 02:07:15;;;;;;;3.40;3.10;;;16.30;99.90;;;;;;5073527;28;20451;-79
2021/08/05 02:09:47;;;;;;;3.90;3.60;;;16.30;99.90;;;;;;5073442;28;20873;-79
2021/08/05 02:12:13;;;;;;;3.87;3.57;;;16.20;99.90;;;;;;5073180;28;20515;-80
2021/08/05 02:14:40;;;;;;;3.90;3.07;;;16.20;99.90;;;;;;5073162;28;20452;-81
2021/08/05 02:17:09;;;;;;;3.10;2.90;;;16.20;99.90;;;;;;5073173;28;20508;-80
2021/08/05 02:19:37;;;;;;;4.70;3.37;;;16.20;99.90;;;;;;5073280;28;20470;-80
2021/08/05 02:22:04;;;;;;;3.60;3.30;;;16.20;99.90;;;;;;5073195;28;20471;-80
2021/08/05 02:24:31;;;;;;;3.70;3.40;;;16.20;99.90;;;;;;5073003;28;20874;-78
2021/08/05 02:26:59;;;;;;;3.83;3.43;;;16.20;99.90;;;;;;5072976;28;20443;-78
2021/08/05 02:29:29;;;;;;;4.20;3.50;;;16.10;99.90;;;;;;5072702;28;20450;-79
2021/08/05 02:31:56;;;;;;;3.33;3.13;;;16.10;99.90;;;;;;5073044;28;20877;-79
2021/08/05 02:34:24;;;;;;;3.77;3.33;;;16.10;99.90;;;;;;5072884;28;20566;-79
2021/08/05 02:36:52;;;;;;;4.10;3.17;;;16.10;99.90;;;;;;5085125;28;20537;-78
2021/08/05 02:39:19;;;;;;;3.00;2.80;;;16.00;99.90;;;;;;5074417;28;20550;-79
2021/08/05 02:41:47;;;;;;;3.83;3.53;;;16.00;99.90;;;;;;5072935;28;20539;-79
2021/08/05 02:44:15;;;;;;;3.93;3.50;;;16.00;99.90;;;;;;5072971;28;20527;-79
2021/08/05 02:46:43;;;;;;;5.63;3.73;;;16.00;99.90;;;;;;5072521;28;21204;-79
2021/08/05 02:49:11;;;;;;;5.83;2.90;;;16.00;99.90;;;;;;5072793;28;20534;-80
2021/08/05 02:51:39;;;;;;;3.63;3.23;;;16.00;99.90;;;;;;5072652;28;20451;-80
2021/08/05 02:54:06;;;;;;;3.67;3.37;;;16.00;99.90;;;;;;5072519;28;20906;-80
2021/08/05 02:56:33;;;;;;;2.90;2.70;;;16.00;99.90;;;;;;5072596;28;20444;-79
2021/08/05 02:59:01;;;;;;;3.93;3.60;;;15.90;99.90;;;;;;5072706;28;20899;-79
2021/08/05 03:01:28;;;;;;;3.93;3.00;;;15.90;99.90;;;;;;5072500;28;20486;-80
2021/08/05 03:03:54;;;;;;;3.63;3.30;;;15.90;99.90;;;;;;5072434;28;20928;-80
2021/08/05 03:06:26;;;;;;;4.90;3.40;;;15.90;99.90;;;;;;5072293;28;20497;-79
2021/08/05 03:08:54;;;;;;;3.17;2.90;;;15.80;99.90;;;;;;5072688;28;20841;-79
2021/08/05 03:11:21;;;;;;;3.50;3.30;;;15.80;99.90;;;;;;5072350;28;20458;-78
2021/08/05 03:13:48;;;;;;;3.80;3.00;;;15.80;99.90;;;;;;5072523;28;20483;-79
2021/08/05 03:16:16;;;;;;;3.93;3.03;;;15.80;99.90;;;;;;5072214;28;20883;-79
2021/08/05 03:18:43;;;;;;;3.13;2.93;;;15.90;99.90;;;;;;5072354;28;20459;-79
2021/08/05 03:21:09;;;;;;;3.33;3.10;;;15.90;99.90;;;;;;5072219;28;20978;-78
2021/08/05 03:23:36;;;;;;;3.70;3.37;;;15.80;99.90;;;;;;5072275;28;20462;-79
2021/08/05 03:26:06;;;;;;;3.33;3.13;;;15.90;99.90;;;;;;5072332;28;20795;-78
2021/08/05 03:28:32;;;;;;;3.60;3.30;;;15.90;99.90;;;;;;5072378;28;20471;-78
2021/08/05 03:30:59;;;;;;;3.47;3.10;;;15.90;99.90;;;;;;5072322;28;20479;-78
2021/08/05 03:33:25;;;;;;;3.10;2.90;;;15.90;99.90;;;;;;5072143;28;20902;-79
2021/08/05 03:35:52;;;;;;;3.10;2.90;;;15.90;99.90;;;;;;5072319;28;20860;-78
2021/08/05 03:38:18;;;;;;;3.27;3.07;;;15.90;99.90;;;;;;5072410;28;20880;-79
2021/08/05 03:40:45;;;;;;;2.87;2.67;;;15.90;99.90;;;;;;5072209;28;20922;-79
2021/08/05 03:43:13;;;;;;;5.20;3.03;;;15.90;99.90;;;;;;5071859;28;20490;-79
2021/08/05 03:45:39;;;;;;;4.50;3.60;;;15.90;99.90;;;;;;5072214;28;20538;-79
2021/08/05 03:48:06;;;;;;;3.47;3.00;;;15.90;99.90;;;;;;5072016;28;20443;-79
2021/08/05 03:50:32;;;;;;;5.63;2.90;;;15.90;99.90;;;;;;5072284;28;20493;-79
2021/08/05 03:52:59;;;;;;;3.57;3.27;;;15.80;99.90;;;;;;5072177;28;20503;-79
2021/08/05 03:55:26;;;;;;;3.50;3.20;;;15.80;99.90;;;;;;5071996;28;20455;-79
2021/08/05 03:57:53;;;;;;;3.93;3.23;;;15.90;99.90;;;;;;5072097;28;20955;-81
2021/08/05 04:00:21;;;;;;;12.30;4.90;;;15.90;99.90;;;;;;5072099;28;20480;-81
2021/08/05 04:02:47;;;;;;;2.90;2.70;;;15.90;99.90;;;;;;5071690;28;20479;-80
2021/08/05 04:05:14;;;;;;;3.90;3.50;;;16.00;99.90;;;;;;5072155;28;20799;-80
2021/08/05 04:07:41;;;;;;;3.33;2.73;;;16.00;99.90;;;;;;5072002;28;20542;-81
2021/08/05 04:10:09;;;;;;;3.63;3.33;;;16.00;99.90;;;;;;5072248;28;20482;-81
2021/08/05 04:12:36;;;;;;;3.00;2.63;;;15.90;99.90;;;;;;5071881;28;20517;-80
2021/08/05 04:15:02;;;;;;;3.10;2.90;;;15.90;99.90;;;;;;5072079;28;20447;-81
2021/08/05 04:17:30;;;;;;;3.50;3.20;;;15.90;99.90;;;;;;5071768;28;20546;-81
2021/08/05 04:19:57;;;;;;;4.70;3.00;;;15.90;99.90;;;;;;5072208;28;20930;-82
2021/08/05 04:22:24;;;;;;;3.90;2.90;;;15.90;99.90;;;;;;5071926;28;20444;-79
2021/08/05 04:24:50;;;;;;;3.20;3.00;;;15.90;99.90;;;;;;5071960;28;20497;-80
2021/08/05 04:27:17;;;;;;;3.40;3.20;;;16.00;99.90;;;;;;5072368;28;20478;-79
2021/08/05 04:29:43;;;;;;;4.27;2.90;;;16.00;99.90;;;;;;5075409;28;20531;-79
2021/08/05 04:32:10;;;;;;;2.60;2.40;;;16.00;99.90;;;;;;5075287;28;20520;-80
2021/08/05 04:34:38;;;;;;;3.43;3.10;;;16.00;99.90;;;;;;5075396;28;20561;-80
2021/08/05 04:37:04;;;;;;;3.40;3.00;;;16.00;99.90;;;;;;5075357;28;20535;-80
2021/08/05 04:39:31;;;;;;;3.27;2.97;;;16.10;99.90;;;;;;5075268;28;20526;-80
2021/08/05 04:41:58;;;;;;;3.13;2.83;;;16.10;99.90;;;;;;5075099;28;20942;-79
2021/08/05 04:44:25;;;;;;;6.23;3.20;;;16.20;99.90;;;;;;5074998;28;21009;-80
2021/08/05 04:46:51;;;;;;;4.10;3.70;;;16.20;99.90;;;;;;5075157;28;20475;-80
2021/08/05 04:49:18;;;;;;;3.40;3.20;;;16.30;99.90;;;;;;5075048;28;20531;-80
2021/08/05 04:51:45;;;;;;;3.13;2.93;;;16.40;99.90;;;;;;5074959;28;20469;-79
2021/08/05 04:54:12;;;;;;;4.70;3.03;;;16.50;99.90;;;;;;5074676;28;20472;-79
2021/08/05 04:56:38;;;;;;;4.90;4.23;;;16.60;99.90;;;;;;5074865;28;20554;-79
2021/08/05 04:59:05;;;;;;;20.93;18.13;;;16.60;99.90;;;;;;5074905;28;20530;-80
2021/08/05 05:01:31;;;;;;;7.70;6.73;;;16.70;99.90;;;;;;5055145;28;20488;-81
2021/08/05 05:03:58;;;;;;;5.00;3.70;;;16.70;99.90;;;;;;5061963;28;20546;-81
2021/08/05 05:06:24;;;;;;;3.40;3.20;;;16.70;99.90;;;;;;5075296;28;20535;-80
2021/08/05 05:08:52;;;;;;;4.20;2.97;;;16.80;99.90;;;;;;5075257;28;20990;-78
2021/08/05 05:11:21;;;;;;;3.13;2.80;;;16.90;99.90;;;;;;5072855;28;20475;-77
2021/08/05 05:13:48;;;;;;;4.60;3.30;;;17.00;99.90;;;;;;5074577;28;20471;-79
2021/08/05 05:16:14;;;;;;;3.33;3.07;;;17.10;99.90;;;;;;5074726;28;20475;-79
2021/08/05 05:18:41;;;;;;;3.67;3.30;;;17.20;99.90;;;;;;5074929;28;20494;-80
2021/08/05 05:21:08;;;;;;;3.30;3.00;;;17.30;99.90;;;;;;5074612;28;20967;-80
2021/08/05 05:23:34;;;;;;;4.83;3.13;;;17.40;99.90;;;;;;5074564;28;20479;-78
2021/08/05 05:26:03;;;;;;;4.23;3.20;;;17.50;99.90;;;;;;5071357;28;20487;-80
2021/08/05 05:28:30;;;;;;;3.97;3.17;;;17.60;99.90;;;;;;5073974;28;20476;-79
2021/08/05 05:30:57;;;;;;;4.53;3.50;;;17.70;99.90;;;;;;5074004;28;20475;-79
2021/08/05 05:33:24;;;;;;;3.10;2.90;;;17.70;99.90;;;;;;5073322;28;20491;-79
2021/08/05 05:35:51;;;;;;;4.53;4.03;;;17.80;99.90;;;;;;5073625;28;21035;-79
2021/08/05 05:38:18;;;;;;;4.60;3.17;;;17.80;99.90;;;;;;5074045;28;20478;-79
2021/08/05 05:40:44;;;;;;;3.23;2.93;;;18.00;99.90;;;;;;5074073;28;20534;-78
2021/08/05 05:43:13;;;;;;;3.43;3.17;;;18.10;99.90;;;;;;5074015;28;20526;-80
2021/08/05 05:45:40;;;;;;;3.37;3.07;;;18.10;99.90;;;;;;5074042;28;20475;-80
2021/08/05 05:48:08;;;;;;;5.10;3.40;;;18.20;99.90;;;;;;5074086;28;20439;-79
2021/08/05 05:50:36;;;;;;;3.00;2.80;;;18.30;99.90;;;;;;5073928;28;20444;-80
2021/08/05 05:53:04;;;;;;;3.13;2.80;;;18.50;99.90;;;;;;5071939;28;20486;-81
2021/08/05 05:55:30;;;;;;;5.23;2.97;;;18.50;99.90;;;;;;5073405;28;20562;-80
2021/08/05 05:57:58;;;;;;;3.60;3.30;;;18.70;99.90;;;;;;5072723;28;20448;-80
2021/08/05 06:00:26;;;;;;;4.17;3.50;;;18.80;99.90;;;;;;5072715;28;20458;-81
2021/08/05 06:02:52;;;;;;;3.83;3.53;;;19.00;99.90;;;;;;5072676;28;20530;-80
2021/08/05 06:05:19;;;;;;;5.87;3.70;;;19.20;99.90;;;;;;5073103;28;20502;-81
2021/08/05 06:07:47;;;;;;;3.40;3.20;;;19.40;99.90;;;;;;5072923;28;20475;-81
2021/08/05 06:10:16;;;;;;;3.07;2.87;;;19.70;99.90;;;;;;5073078;28;20535;-81
2021/08/05 06:12:43;;;;;;;7.43;3.30;;;20.00;99.90;;;;;;5073167;28;20487;-82
2021/08/05 06:15:10;;;;;;;3.60;3.30;;;20.30;99.90;;;;;;5072957;28;20511;-81
2021/08/05 06:17:40;;;;;;;4.00;3.33;;;20.60;99.90;;;;;;5073204;28;20870;-79
2021/08/05 06:20:09;;;;;;;3.40;3.10;;;20.80;99.90;;;;;;5073418;28;20451;-81
2021/08/05 06:22:35;;;;;;;4.10;3.80;;;21.00;99.90;;;;;;5073259;28;20538;-81
2021/08/05 06:25:02;;;;;;;4.00;3.70;;;21.10;99.90;;;;;;5073422;28;20439;-81
2021/08/05 06:27:28;;;;;;;4.20;3.90;;;21.10;99.90;;;;;;5072613;28;20881;-80
2021/08/05 06:29:55;;;;;;;3.80;3.10;;;21.30;99.90;;;;;;5073278;28;20538;-80
2021/08/05 06:32:21;;;;;;;3.67;3.37;;;21.50;99.90;;;;;;5072019;28;20849;-81
2021/08/05 06:34:49;;;;;;;3.90;3.60;;;21.80;99.90;;;;;;5072542;28;20558;-81
2021/08/05 06:37:15;;;;;;;4.70;4.30;;;21.90;99.90;;;;;;5071694;28;21021;-80
2021/08/05 06:39:42;;;;;;;5.77;3.30;;;22.00;99.90;;;;;;5071988;28;20479;-80
2021/08/05 06:42:08;;;;;;;4.40;4.00;;;22.30;99.90;;;;;;5072698;28;20522;-80
2021/08/05 06:44:36;;;;;;;4.07;3.77;;;22.60;99.90;;;;;;5072415;28;20455;-82
2021/08/05 06:47:04;;;;;;;5.83;4.20;;;22.80;99.90;;;;;;5072472;28;20860;-81
2021/08/05 06:49:31;;;;;;;5.43;3.83;;;22.90;99.90;;;;;;5060901;28;20450;-79
2021/08/05 06:51:59;;;;;;;5.10;4.17;;;23.00;99.90;;;;;;5071356;28;20439;-79
2021/08/05 06:54:25;;;;;;;4.20;3.90;;;23.20;99.90;;;;;;5072175;28;20487;-79
2021/08/05 06:56:52;;;;;;;4.10;3.80;;;23.30;99.90;;;;;;5072649;28;20910;-79
2021/08/05 06:59:19;;;;;;;5.97;4.40;;;23.40;99.90;;;;;;5072645;28;20448;-79
2021/08/05 07:01:46;;;;;;;5.47;3.80;;;23.50;99.90;;;;;;5072560;28;20440;-79
2021/08/05 07:04:12;;;;;;;4.90;4.50;;;23.60;99.90;;;;;;5072119;28;20483;-79
2021/08/05 07:06:39;;;;;;;4.43;4.03;;;23.50;99.90;;;;;;5072510;28;20539;-80
2021/08/05 07:09:07;;;;;;;4.20;3.90;;;23.70;99.90;;;;;;5072123;28;20443;-82
2021/08/05 07:11:33;;;;;;;5.03;4.13;;;23.80;99.90;;;;;;5072090;28;21006;-80
2021/08/05 07:14:00;;;;;;;4.60;4.30;;;24.00;99.90;;;;;;5071774;28;20554;-80
2021/08/05 07:16:26;;;;;;;3.93;3.63;;;24.10;99.90;;;;;;5071968;28;20981;-80
2021/08/05 07:18:55;;;;;;;4.63;4.10;;;24.20;99.90;;;;;;5071981;28;20543;-80
2021/08/05 07:21:22;;;;;;;5.77;4.77;;;24.20;99.90;;;;;;5072282;28;20539;-80
2021/08/05 07:23:48;;;;;;;7.20;4.33;;;24.00;99.90;;;;;;5072103;28;20439;-80
2021/08/05 07:26:16;;;;;;;4.13;3.83;;;23.90;99.90;;;;;;5072039;28;20959;-80
2021/08/05 07:28:42;;;;;;;3.93;3.63;;;23.80;99.90;;;;;;5072004;28;20443;-80
2021/08/05 07:31:09;;;;;;;4.87;4.37;;;23.60;99.90;;;;;;5071739;28;21022;-80
2021/08/05 07:33:35;;;;;;;4.40;4.10;;;23.50;99.90;;;;;;5072101;28;20530;-80
2021/08/05 07:36:03;;;;;;;3.90;3.60;;;23.40;99.90;;;;;;5071732;28;20570;-80
2021/08/05 07:38:29;;;;;;;4.93;4.53;;;23.30;99.90;;;;;;5071907;28;20546;-80
2021/08/05 07:40:56;;;;;;;7.00;3.50;;;23.20;99.90;;;;;;5071265;28;20932;-80
2021/08/05 07:43:23;;;;;;;4.30;4.00;;;23.20;99.90;;;;;;5071789;28;20554;-80
2021/08/05 07:45:50;;;;;;;4.57;4.27;;;23.20;99.90;;;;;;5071775;28;20881;-80
2021/08/05 07:48:16;;;;;;;4.33;3.93;;;23.30;99.90;;;;;;5072004;28;20482;-80
2021/08/05 07:50:43;;;;;;;4.07;3.60;;;23.20;99.90;;;;;;5071696;28;20550;-80
2021/08/05 07:53:09;;;;;;;4.87;4.47;;;23.30;99.90;;;;;;5071745;28;20872;-80
2021/08/05 07:55:39;;;;;;;5.20;4.70;;;23.50;99.90;;;;;;5071479;28;20566;-80
2021/08/05 07:58:05;;;;;;;4.30;4.00;;;23.60;99.90;;;;;;5071271;28;20471;-80
2021/08/05 08:00:35;;;;;;;3.63;3.43;;;23.60;99.90;;;;;;5071776;28;20530;-80
2021/08/05 08:03:01;;;;;;;5.33;3.80;;;23.50;99.90;;;;;;5073114;28;20475;-80
2021/08/05 08:05:28;;;;;;;3.63;3.43;;;23.60;99.90;;;;;;5075157;28;20530;-80
2021/08/05 08:07:55;;;;;;;4.83;4.53;;;23.70;99.90;;;;;;5075283;28;20526;-80
2021/08/05 08:10:22;;;;;;;7.47;4.30;;;23.80;99.90;;;;;;5072564;28;20475;-81
2021/08/05 08:12:48;;;;;;;4.37;3.70;;;23.90;99.90;;;;;;5075527;28;20465;-80
2021/08/05 08:15:15;;;;;;;3.83;3.60;;;24.00;99.90;;;;;;5075370;28;20887;-80
2021/08/05 08:17:43;;;;;;;4.60;4.23;;;24.20;99.90;;;;;;5075766;28;20475;-80
2021/08/05 08:20:11;;;;;;;4.53;4.13;;;24.30;99.90;;;;;;5063956;28;20870;-80
2021/08/05 08:22:38;;;;;;;4.23;3.93;;;24.30;99.90;;;;;;5075281;28;20448;-80
2021/08/05 08:25:05;;;;;;;5.27;4.77;;;24.40;99.90;;;;;;5075222;28;20450;-80
2021/08/05 08:27:32;;;;;;;5.27;4.60;;;24.40;99.90;;;;;;5072342;28;20530;-80
2021/08/05 08:29:58;;;;;;;4.27;3.97;;;24.60;99.90;;;;;;5074782;28;20447;-80
2021/08/05 08:32:25;;;;;;;4.70;4.27;;;24.80;99.90;;;;;;5074866;28;20483;-80
2021/08/05 08:34:53;;;;;;;4.90;4.50;;;24.90;99.90;;;;;;5074369;28;20478;-80
2021/08/05 08:37:19;;;;;;;6.33;4.17;;;25.10;99.90;;;;;;5074923;28;20538;-80
2021/08/05 08:39:49;;;;;;;4.40;4.10;;;25.20;99.90;;;;;;5075028;28;20534;-80
2021/08/05 08:42:16;;;;;;;4.63;4.23;;;25.50;99.90;;;;;;5075245;28;20518;-80
2021/08/05 08:44:46;;;;;;;4.43;4.13;;;25.60;99.90;;;;;;5075113;28;20451;-80
2021/08/05 08:47:13;;;;;;;3.50;3.20;;;25.50;99.90;;;;;;5075157;28;20503;-80
2021/08/05 08:49:43;;;;;;;4.80;4.37;;;25.40;99.90;;;;;;5075420;28;20538;-79
2021/08/05 08:52:11;;;;;;;4.87;4.47;;;25.30;99.90;;;;;;5063694;28;20846;-80
2021/08/05 08:54:44;;;;;;;3.53;3.30;;;25.20;99.90;;;;;;5074775;28;20558;-80
2021/08/05 08:57:11;;;;;;;4.47;4.07;;;25.30;99.90;;;;;;5074617;28;20447;-80
2021/08/05 08:59:38;;;;;;;3.70;3.40;;;25.20;99.90;;;;;;5074596;28;20539;-80
2021/08/05 09:02:05;;;;;;;3.80;3.50;;;25.10;99.90;;;;;;5074401;28;20890;-80
2021/08/05 09:04:31;;;;;;;4.33;3.67;;;25.10;99.90;;;;;;5074499;28;20486;-80
2021/08/05 09:06:58;;;;;;;4.53;4.23;;;25.10;99.90;;;;;;5074355;28;20451;-80
2021/08/05 09:09:26;;;;;;;4.10;3.70;;;25.10;99.90;;;;;;5074589;28;20475;-80
2021/08/05 09:11:52;;;;;;;3.63;3.33;;;25.00;99.90;;;;;;5074488;28;20811;-80
2021/08/05 09:14:40;;;;;;;3.10;2.90;;;24.90;99.90;;;;;;5073992;28;20538;-80
2021/08/05 09:17:19;;;;;;;4.57;4.10;;;24.70;99.90;;;;;;5074153;28;20573;-80
2021/08/05 09:19:46;;;;;;;4.37;3.97;;;24.60;99.90;;;;;;5074322;28;20480;-80
2021/08/05 09:22:14;;;;;;;3.40;3.10;;;24.60;99.90;;;;;;5074413;28;20882;-80
2021/08/05 09:24:42;;;;;;;3.30;3.10;;;24.70;99.90;;;;;;5074250;28;20450;-80
2021/08/05 09:27:08;;;;;;;4.50;4.20;;;24.70;99.90;;;;;;5073692;28;20994;-80
2021/08/05 09:29:45;;;;;;;3.87;3.27;;;24.70;99.90;;;;;;5074114;28;20553;-80
2021/08/05 09:32:13;;;;;;;3.67;3.37;;;24.80;99.90;;;;;;5061860;28;20973;-80
2021/08/05 09:34:43;;;;;;;4.00;3.37;;;24.90;99.90;;;;;;5073968;28;20498;-80
2021/08/05 09:37:11;;;;;;;4.23;3.90;;;25.00;99.90;;;;;;5073956;28;20504;-80
2021/08/05 09:39:40;;;;;;;3.57;3.37;;;25.10;99.90;;;;;;5074241;28;20443;-79
2021/08/05 09:42:11;;;;;;;3.70;3.40;;;25.00;99.90;;;;;;5073550;28;20447;-80
2021/08/05 09:44:45;;;;;;;4.10;2.90;;;25.10;99.90;;;;;;5073620;28;20451;-80
2021/08/05 09:47:16;;;;;;;3.87;3.50;;;25.30;99.90;;;;;;5073506;28;20451;-80
2021/08/05 09:49:53;;;;;;;5.10;3.30;;;25.40;99.90;;;;;;5073598;28;20531;-80
2021/08/05 09:52:26;;;;;;;3.70;3.40;;;25.50;99.90;;;;;;5073994;28;20502;-80
2021/08/05 09:54:53;;;;;;;2.97;2.77;;;25.60;99.90;;;;;;5073559;28;20872;-80
2021/08/05 09:57:24;;;;;;;3.63;3.33;;;25.70;99.90;;;;;;5073502;28;20452;-80
2021/08/05 09:59:56;;;;;;;3.93;3.63;;;25.80;99.90;;;;;;5073674;28;20523;-80
2021/08/05 10:02:25;;;;;;;3.30;2.90;;;25.90;99.90;;;;;;5072805;28;20475;-80
2021/08/05 10:04:52;;;;;;;3.60;3.30;;;25.80;99.90;;;;;;5073353;28;20810;-80
2021/08/05 10:07:18;;;;;;;7.30;3.40;;;25.80;99.90;;;;;;5073069;28;20521;-79
2021/08/05 10:09:45;;;;;;;3.40;3.20;;;25.90;99.90;;;;;;5073446;28;20440;-79
2021/08/05 10:12:20;;;;;;;3.10;2.90;;;26.00;99.90;;;;;;5073229;28;20464;-80
2021/08/05 10:14:50;;;;;;;3.77;3.57;;;26.00;99.90;;;;;;5073360;28;20443;-79
2021/08/05 10:17:18;;;;;;;3.30;3.10;;;26.10;99.90;;;;;;5072977;28;20482;-80
2021/08/05 10:19:47;;;;;;;3.23;2.93;;;26.10;99.90;;;;;;5072908;28;20451;-80
2021/08/05 10:22:15;;;;;;;3.70;2.90;;;26.20;99.90;;;;;;5073037;28;20448;-80
2021/08/05 10:24:45;;;;;;;3.03;2.83;;;26.30;99.90;;;;;;5072740;28;20448;-80
2021/08/05 10:27:13;;;;;;;3.50;3.30;;;26.50;99.90;;;;;;5072863;28;20501;-79
2021/08/05 10:29:40;;;;;;;3.40;2.73;;;26.70;99.90;;;;;;5073126;28;20867;-79
2021/08/05 10:32:11;;;;;;;3.20;3.00;;;26.80;99.90;;;;;;5072878;28;20526;-79
2021/08/05 10:34:39;;;;;;;4.57;4.23;;;26.90;99.90;;;;;;5072826;28;20522;-79
2021/08/05 10:37:09;;;;;;;5.33;4.90;;;27.00;99.90;;;;;;5072973;28;20483;-79
2021/08/05 10:39:36;;;;;;;4.43;4.07;;;27.10;99.90;;;;;;5068633;28;20454;-79
2021/08/05 10:42:06;;;;;;;3.03;2.83;;;27.30;99.90;;;;;;5072805;28;20543;-79
2021/08/05 10:44:34;;;;;;;2.80;2.43;;;27.50;99.90;;;;;;5072649;28;20447;-79
2021/08/05 10:47:04;;;;;;;3.87;3.23;;;27.60;99.90;;;;;;5072238;28;20534;-83
2021/08/05 10:49:33;;;;;;;3.00;2.40;;;27.60;99.90;;;;;;5068255;28;20535;-82
2021/08/05 10:52:05;;;;;;;5.37;5.00;;;27.80;99.90;;;;;;5072223;28;20942;-82
2021/08/05 10:54:51;;;;;;;4.00;2.80;;;28.00;99.90;;;;;;5067305;28;21065;-82
2021/08/05 10:57:21;;;;;;;4.50;2.53;;;28.10;99.90;;;;;;5070273;28;20454;-82
2021/08/05 11:00:08;;;;;;;2.80;2.60;;;28.20;99.90;;;;;;5073238;28;20834;-83
2021/08/05 11:02:46;;;;;;;2.50;2.40;;;28.10;99.90;;;;;;5072525;28;20471;-83
2021/08/05 11:05:43;;;;;;;2.80;2.60;;;28.00;99.90;;;;;;5072496;28;20602;-83
2021/08/05 11:08:27;;;;;;;2.57;2.33;;;28.00;99.90;;;;;;5061230;28;20454;-83
2021/08/05 11:11:34;;;;;;;5.30;4.93;;;28.20;99.90;;;;;;5072474;28;20456;-83
2021/08/05 11:14:37;;;;;;;3.50;3.20;;;28.30;99.90;;;;;;5069046;28;20446;-84
2021/08/05 11:17:06;;;;;;;2.60;2.50;;;28.60;99.90;;;;;;5063553;28;20483;-83
2021/08/05 11:19:41;;;;;;;2.87;2.60;;;28.70;99.90;;;;;;5072590;28;20475;-83
2021/08/05 11:22:48;;;;;;;2.33;2.23;;;28.60;99.90;;;;;;5072302;28;20443;-83
2021/08/05 11:25:17;;;;;;;3.30;2.50;;;28.10;99.90;;;;;;5072167;28;20869;-83
2021/08/05 11:28:03;;;;;;;2.73;2.50;;;27.80;99.90;;;;;;5072465;28;20942;-83
2021/08/05 11:30:43;;;;;;;2.70;2.50;;;27.70;99.90;;;;;;5071932;28;20493;-82
2021/08/05 11:33:44;;;;;;;2.23;2.03;;;27.80;99.90;;;;;;5072313;28;20633;-83
2021/08/05 11:36:23;;;;;;;3.20;3.00;;;28.10;99.90;;;;;;5061366;28;20478;-83
2021/08/05 11:39:01;;;;;;;2.67;2.47;;;28.30;99.90;;;;;;5075910;28;20505;-82
2021/08/05 11:41:53;;;;;;;5.90;5.37;;;28.30;99.90;;;;;;5075708;28;20443;-83
2021/08/05 11:44:38;;;;;;;2.10;2.00;;;28.50;99.90;;;;;;5066210;28;20443;-84
2021/08/05 11:47:39;;;;;;;2.77;2.57;;;28.60;99.90;;;;;;5076170;28;20783;-83
2021/08/05 11:50:19;;;;;;;2.90;2.60;;;28.60;99.90;;;;;;5071133;28;20474;-83
2021/08/05 11:52:47;;;;;;;2.07;1.83;;;28.60;99.90;;;;;;5076242;28;20479;-83
2021/08/05 11:55:16;;;;;;;2.40;2.30;;;28.50;99.90;;;;;;5076202;28;20497;-83
2021/08/05 11:57:45;;;;;;;2.00;1.90;;;28.60;99.90;;;;;;5075942;28;20447;-83
2021/08/05 12:00:16;;;;;;;2.37;2.00;;;28.60;99.90;;;;;;5075839;28;20509;-83
2021/08/05 12:02:43;;;;;;;2.30;2.10;;;28.50;99.90;;;;;;5075402;28;20471;-83
2021/08/05 12:05:11;;;;;;;2.40;2.30;;;28.60;99.90;;;;;;5075223;28;20545;-83
2021/08/05 12:07:39;;;;;;;2.27;2.17;;;28.60;99.90;;;;;;5075317;28;20534;-83
2021/08/05 12:10:09;;;;;;;2.63;2.43;;;28.60;99.90;;;;;;5074752;28;20444;-83
2021/08/05 12:12:39;;;;;;;5.17;4.77;;;28.60;99.90;;;;;;5076075;28;20451;-83
2021/08/05 12:15:09;;;;;;;2.17;2.07;;;28.70;99.90;;;;;;5075999;28;20486;-84
2021/08/05 12:17:44;;;;;;;3.97;2.37;;;28.70;99.90;;;;;;5069652;28;20542;-84
2021/08/05 12:20:14;;;;;;;4.30;4.00;;;28.60;99.90;;;;;;5073015;28;20530;-83
2021/08/05 12:22:43;;;;;;;2.77;2.20;;;28.40;99.90;;;;;;5074777;28;20955;-84
2021/08/05 12:25:24;;;;;;;2.20;2.00;;;28.40;99.90;;;;;;5075350;28;20522;-83
2021/08/05 12:27:56;;;;;;;4.37;2.40;;;28.40;99.90;;;;;;5075189;28;20451;-83
2021/08/05 12:30:32;;;;;;;4.03;2.60;;;28.30;99.90;;;;;;5075236;28;20987;-83
2021/08/05 12:33:01;;;;;;;2.03;1.93;;;28.30;99.90;;;;;;5075550;28;20475;-83
2021/08/05 12:35:27;;;;;;;2.70;2.47;;;28.20;99.90;;;;;;5075374;28;20575;-83
2021/08/05 12:38:02;;;;;;;2.93;2.47;;;28.10;99.90;;;;;;5074898;28;20530;-83
2021/08/05 12:40:29;;;;;;;2.00;1.80;;;28.00;99.90;;;;;;5075451;28;20530;-83
2021/08/05 12:42:57;;;;;;;2.40;2.27;;;28.10;99.90;;;;;;5075457;28;20893;-83
2021/08/05 12:45:26;;;;;;;2.23;2.10;;;28.30;99.90;;;;;;5075518;28;20454;-83
2021/08/05 12:47:52;;;;;;;2.30;2.20;;;28.40;99.90;;;;;;5073660;28;20458;-84
2021/08/05 12:50:19;;;;;;;2.07;1.97;;;28.60;99.90;;;;;;5074961;28;20535;-83
2021/08/05 12:52:46;;;;;;;3.00;2.40;;;28.70;99.90;;;;;;5075567;28;20482;-83
2021/08/05 12:55:12;;;;;;;2.70;2.50;;;28.50;99.90;;;;;;5075365;28;20451;-84